createdAt,value
2019-04-25T00:01:47.642Z,39.80
2019-04-25T00:04:21.527Z,37.80
2019-04-25T00:06:54.531Z,38.60
2019-04-25T00:09:31.710Z,36.60
2019-04-25T00:12:04.341Z,37.40
2019-04-25T00:14:35.956Z,37.80
2019-04-25T00:17:07.851Z,39.00
2019-04-25T00:19:40.712Z,35.60
2019-04-25T00:22:39.210Z,36.40
2019-04-25T00:25:42.249Z,39.00
2019-04-25T00:28:12.746Z,39.40
2019-04-25T00:30:44.679Z,40.20
2019-04-25T00:33:16.440Z,38.60
2019-04-25T00:35:48.176Z,40.00
2019-04-25T00:38:20.050Z,44.60
2019-04-25T00:40:55.054Z,42.80
2019-04-25T00:43:28.040Z,45.80
2019-04-25T00:45:59.452Z,46.40
2019-04-25T00:48:32.221Z,43.60
2019-04-25T00:51:03.943Z,40.40
2019-04-25T00:53:35.584Z,43.00
2019-04-25T00:56:07.372Z,42.80
2019-04-25T00:58:54.611Z,44.60
2019-04-25T01:01:48.016Z,46.80
2019-04-25T01:04:21.775Z,44.60
2019-04-25T01:06:53.993Z,47.80
2019-04-25T01:09:26.842Z,47.00
2019-04-25T01:11:59.790Z,48.20
2019-04-25T01:14:31.966Z,41.40
2019-04-25T01:17:05.430Z,47.00
2019-04-25T01:19:38.311Z,47.40
2019-04-25T01:22:10.025Z,56.00
2019-04-25T01:24:43.950Z,50.60
2019-04-25T01:27:16.042Z,49.20
2019-04-25T01:29:48.694Z,48.80
2019-04-25T01:32:30.594Z,51.40
2019-04-25T01:35:13.970Z,56.20
2019-04-25T01:37:54.809Z,55.00
2019-04-25T01:40:44.210Z,52.00
2019-04-25T01:43:37.918Z,53.60
2019-04-25T01:46:11.279Z,50.80
2019-04-25T01:48:43.383Z,50.60
2019-04-25T01:51:17.642Z,48.80
2019-04-25T01:53:49.119Z,49.20
2019-04-25T01:56:21.267Z,49.40
2019-04-25T01:58:55.883Z,47.80
2019-04-25T02:01:28.003Z,44.80
2019-04-25T02:03:59.569Z,46.80
2019-04-25T02:06:33.455Z,43.80
2019-04-25T02:09:08.184Z,39.60
2019-04-25T02:11:59.802Z,40.20
2019-04-25T02:14:33.549Z,49.20
2019-04-25T02:17:05.476Z,45.20
2019-04-25T02:19:37.206Z,44.00
2019-04-25T02:22:10.025Z,50.40
2019-04-25T02:24:43.552Z,45.00
2019-04-25T02:27:15.249Z,50.80
2019-04-25T02:29:46.932Z,49.60
2019-04-25T02:32:20.282Z,49.00
2019-04-25T02:34:55.295Z,45.80
2019-04-25T02:37:25.856Z,42.20
2019-04-25T02:40:00.017Z,46.00
2019-04-25T02:42:30.971Z,43.40
2019-04-25T02:45:17.340Z,47.00
2019-04-25T02:48:07.026Z,47.40
2019-04-25T02:50:56.439Z,47.60
2019-04-25T02:53:36.639Z,48.00
2019-04-25T02:56:26.131Z,46.20
2019-04-25T02:58:39.902Z,45.80
2019-04-25T03:01:19.655Z,49.40
2019-04-25T03:03:46.917Z,46.80
2019-04-25T03:06:19.252Z,38.60
2019-04-25T03:08:54.053Z,46.60
2019-04-25T03:11:24.881Z,49.40
2019-04-25T03:13:57.734Z,48.80
2019-04-25T03:16:29.936Z,49.40
2019-04-25T03:19:17.903Z,47.00
2019-04-25T03:21:51.024Z,47.40
2019-04-25T03:24:24.985Z,39.40
2019-04-25T03:26:56.095Z,45.00
2019-04-25T03:29:27.738Z,42.80
2019-04-25T03:32:01.946Z,45.20
2019-04-25T03:34:34.927Z,47.80
2019-04-25T03:37:06.526Z,45.80
2019-04-25T03:39:39.192Z,47.00
2019-04-25T03:42:10.575Z,43.20
2019-04-25T03:44:43.708Z,42.80
2019-04-25T03:47:15.722Z,46.00
2019-04-25T03:49:48.236Z,45.00
2019-04-25T03:52:20.244Z,43.60
2019-04-25T03:54:53.328Z,44.20
2019-04-25T03:57:26.028Z,45.00
2019-04-25T03:59:58.657Z,38.40
2019-04-25T04:02:31.222Z,43.00
2019-04-25T04:05:05.633Z,43.60
2019-04-25T04:07:37.504Z,41.80
2019-04-25T04:10:12.594Z,45.40
2019-04-25T04:12:46.317Z,36.60
2019-04-25T04:15:19.525Z,46.00
2019-04-25T04:17:58.458Z,45.00
2019-04-25T04:20:44.149Z,44.00
2019-04-25T04:23:23.171Z,43.00
2019-04-25T04:25:55.974Z,43.00
2019-04-25T04:28:28.931Z,45.00
2019-04-25T04:31:01.797Z,42.80
2019-04-25T04:33:34.615Z,48.60
2019-04-25T04:36:07.433Z,47.00
2019-04-25T04:38:39.674Z,47.00
2019-04-25T04:41:13.942Z,47.20
2019-04-25T04:43:46.482Z,45.20
2019-04-25T04:46:19.797Z,46.60
2019-04-25T04:48:54.106Z,46.40
2019-04-25T04:51:26.564Z,42.40
2019-04-25T04:53:58.961Z,46.40
2019-04-25T04:56:34.074Z,44.40
2019-04-25T04:59:06.740Z,42.80
2019-04-25T05:01:44.958Z,43.40
2019-04-25T05:04:25.323Z,43.60
2019-04-25T05:07:25.244Z,46.00
2019-04-25T05:09:58.225Z,45.60
2019-04-25T05:12:30.283Z,46.40
2019-04-25T05:15:03.780Z,46.80
2019-04-25T05:17:36.392Z,47.00
2019-04-25T05:20:09.322Z,49.80
2019-04-25T05:22:41.395Z,45.20
2019-04-25T05:25:16.251Z,46.80
2019-04-25T05:27:59.438Z,48.80
2019-04-25T05:30:28.190Z,43.20
2019-04-25T05:33:00.661Z,47.00
2019-04-25T05:35:33.245Z,44.40
2019-04-25T05:38:05.833Z,44.60
2019-04-25T05:40:51.432Z,38.80
2019-04-25T05:43:24.898Z,43.20
2019-04-25T05:46:00.224Z,39.20
2019-04-25T05:48:33.907Z,40.60
2019-04-25T05:51:05.805Z,43.00
2019-04-25T05:53:37.401Z,43.40
2019-04-25T05:56:09.163Z,41.20
2019-04-25T05:58:43.839Z,41.20
2019-04-25T06:01:15.263Z,38.00
2019-04-25T06:03:47.399Z,43.40
2019-04-25T06:06:21.246Z,46.20
2019-04-25T06:08:59.377Z,39.20
2019-04-25T06:11:47.072Z,42.80
2019-04-25T06:14:19.948Z,42.00
2019-04-25T06:16:53.634Z,41.60
2019-04-25T06:19:43.555Z,45.00
2019-04-25T06:22:20.921Z,35.60
2019-04-25T06:25:00.296Z,41.40
2019-04-25T06:27:35.339Z,39.80
2019-04-25T06:30:16.599Z,43.40
2019-04-25T06:32:48.250Z,41.40
2019-04-25T06:35:21.019Z,43.60
2019-04-25T06:37:53.650Z,43.20
2019-04-25T06:40:29.322Z,41.20
2019-04-25T06:43:01.275Z,42.00
2019-04-25T06:45:56.410Z,37.60
2019-04-25T06:48:59.390Z,41.20
2019-04-25T06:51:50.431Z,38.20
2019-04-25T06:54:25.267Z,38.80
2019-04-25T06:56:55.369Z,40.00
2019-04-25T06:59:28.784Z,39.20
2019-04-25T07:02:04.240Z,37.20
2019-04-25T07:04:36.849Z,39.00
2019-04-25T07:07:12.382Z,36.20
2019-04-25T07:09:43.571Z,38.80
2019-04-25T07:12:16.414Z,36.20
2019-04-25T07:14:48.930Z,33.80
2019-04-25T07:17:21.476Z,33.20
2019-04-25T07:19:54.600Z,34.00
2019-04-25T07:22:26.838Z,32.20
2019-04-25T07:24:59.189Z,33.20
2019-04-25T07:27:46.262Z,35.00
2019-04-25T07:30:45.474Z,34.40
2019-04-25T07:33:16.945Z,34.00
2019-04-25T07:35:49.120Z,29.00
2019-04-25T07:38:21.876Z,27.80
2019-04-25T07:40:53.811Z,26.00
2019-04-25T07:43:25.894Z,26.60
2019-04-25T07:45:57.790Z,25.80
2019-04-25T07:48:30.016Z,22.00
2019-04-25T07:51:03.736Z,22.40
2019-04-25T07:53:36.118Z,21.20
2019-04-25T07:56:08.502Z,23.20
2019-04-25T07:58:51.655Z,22.80
2019-04-25T08:01:17.437Z,24.00
2019-04-25T08:03:49.397Z,26.40
2019-04-25T08:06:22.632Z,22.40
2019-04-25T08:08:54.669Z,22.00
2019-04-25T08:11:28.048Z,21.40
2019-04-25T08:14:14.880Z,24.00
2019-04-25T08:16:49.723Z,23.20
2019-04-25T08:19:24.984Z,23.00
2019-04-25T08:21:59.316Z,23.20
2019-04-25T08:24:33.185Z,22.20
2019-04-25T08:27:06.668Z,22.20
2019-04-25T08:29:39.768Z,23.00
2019-04-25T08:32:14.121Z,23.20
2019-04-25T08:34:46.051Z,22.20
2019-04-25T08:37:21.043Z,21.80
2019-04-25T08:39:53.896Z,22.20
2019-04-25T08:42:25.851Z,22.20
2019-04-25T08:44:57.515Z,21.20
2019-04-25T08:47:31.389Z,22.80
2019-04-25T08:50:26.308Z,23.40
2019-04-25T08:52:47.003Z,23.00
2019-04-25T08:55:45.707Z,21.20
2019-04-25T08:58:31.298Z,23.20
2019-04-25T09:01:24.900Z,21.60
2019-04-25T09:04:08.465Z,22.40
2019-04-25T09:06:40.437Z,23.40
2019-04-25T09:09:13.690Z,21.00
2019-04-25T09:11:46.874Z,22.60
2019-04-25T09:14:19.117Z,19.20
2019-04-25T09:16:53.364Z,19.60
2019-04-25T09:19:26.428Z,21.20
2019-04-25T09:21:58.367Z,21.40
2019-04-25T09:24:30.479Z,21.40
2019-04-25T09:27:03.675Z,21.80
2019-04-25T09:29:36.715Z,19.60
2019-04-25T09:32:09.845Z,21.80
2019-04-25T09:34:41.587Z,19.00
2019-04-25T09:37:14.940Z,18.20
2019-04-25T09:40:11.488Z,18.20
2019-04-25T09:42:45.218Z,21.80
2019-04-25T09:45:35.993Z,22.00
2019-04-25T09:48:24.598Z,20.20
2019-04-25T09:51:05.682Z,19.20
2019-04-25T09:53:44.757Z,21.00
2019-04-25T09:56:27.039Z,22.20
2019-04-25T09:59:05.784Z,22.00
2019-04-25T10:01:40.223Z,21.00
2019-04-25T10:04:12.663Z,22.00
2019-04-25T10:06:45.990Z,15.80
2019-04-25T10:09:18.163Z,19.00
2019-04-25T10:11:50.533Z,19.40
2019-04-25T10:14:47.899Z,19.40
2019-04-25T10:17:20.177Z,21.00
2019-04-25T10:19:52.010Z,19.20
2019-04-25T10:22:23.849Z,20.20
2019-04-25T10:25:00.202Z,21.00
2019-04-25T10:27:29.634Z,19.80
2019-04-25T10:30:14.557Z,20.60
2019-04-25T10:32:35.707Z,14.20
2019-04-25T10:35:08.042Z,13.60
2019-04-25T10:37:39.927Z,21.00
2019-04-25T10:40:13.446Z,17.40
2019-04-25T10:42:47.707Z,20.80
2019-04-25T10:45:23.406Z,21.00
2019-04-25T10:47:53.340Z,21.20
2019-04-25T10:50:25.842Z,20.60
2019-04-25T10:52:57.908Z,20.00
2019-04-25T10:55:29.559Z,21.00
2019-04-25T10:58:01.491Z,19.20
2019-04-25T11:00:37.166Z,21.00
2019-04-25T11:03:31.284Z,20.20
2019-04-25T11:06:03.947Z,18.60
2019-04-25T11:08:36.323Z,20.40
2019-04-25T11:11:08.157Z,20.20
2019-04-25T11:13:41.601Z,21.80
2019-04-25T11:16:14.553Z,19.00
2019-04-25T11:18:47.570Z,21.00
2019-04-25T11:21:19.322Z,21.40
2019-04-25T11:23:51.212Z,21.40
2019-04-25T11:26:23.032Z,21.20
2019-04-25T11:28:54.957Z,22.00
2019-04-25T11:31:33.719Z,21.00
2019-04-25T11:34:10.860Z,21.20
2019-04-25T11:36:42.996Z,22.00
2019-04-25T11:39:34.213Z,19.80
2019-04-25T11:42:15.435Z,21.60
2019-04-25T11:44:47.332Z,21.20
2019-04-25T11:47:19.232Z,19.60
2019-04-25T11:49:51.944Z,19.60
2019-04-25T11:52:28.095Z,22.20
2019-04-25T11:54:57.814Z,22.00
2019-04-25T11:57:29.695Z,20.40
2019-04-25T12:00:01.673Z,21.40
2019-04-25T12:02:35.263Z,21.00
2019-04-25T12:05:07.640Z,21.00
2019-04-25T12:07:39.492Z,23.00
2019-04-25T12:10:13.068Z,19.00
2019-04-25T12:12:47.197Z,23.60
2019-04-25T12:15:18.308Z,19.20
2019-04-25T12:17:50.396Z,23.00
2019-04-25T12:20:22.659Z,23.00
2019-04-25T12:23:06.037Z,21.20
2019-04-25T12:25:28.298Z,21.60
2019-04-25T12:28:00.270Z,23.00
2019-04-25T12:30:39.810Z,22.60
2019-04-25T12:33:18.024Z,21.20
2019-04-25T12:35:39.188Z,22.60
2019-04-25T12:38:11.882Z,23.00
2019-04-25T12:40:43.549Z,20.00
2019-04-25T12:43:15.506Z,22.20
2019-04-25T12:46:21.347Z,25.00
2019-04-25T12:48:53.677Z,25.00
2019-04-25T12:51:25.559Z,23.80
2019-04-25T12:53:58.027Z,21.80
2019-04-25T12:56:31.536Z,23.00
2019-04-25T12:59:04.578Z,24.20
2019-04-25T13:01:36.269Z,25.00
2019-04-25T13:04:09.217Z,25.00
2019-04-25T13:06:40.934Z,25.40
2019-04-25T13:09:14.050Z,26.20
2019-04-25T13:11:46.147Z,24.80
2019-04-25T13:14:18.106Z,24.40
2019-04-25T13:16:49.900Z,23.00
2019-04-25T13:19:25.941Z,25.60
2019-04-25T13:21:55.017Z,25.00
2019-04-25T13:24:26.928Z,19.00
2019-04-25T13:27:04.401Z,24.80
2019-04-25T13:29:57.624Z,25.60
2019-04-25T13:32:58.121Z,26.20
2019-04-25T13:35:37.671Z,26.20
2019-04-25T13:38:09.495Z,26.00
2019-04-25T13:40:41.322Z,26.20
2019-04-25T13:43:12.747Z,27.80
2019-04-25T13:45:44.029Z,28.00
2019-04-25T13:48:15.372Z,28.00
2019-04-25T13:50:47.298Z,28.00
2019-04-25T13:53:19.872Z,29.20
2019-04-25T13:55:52.619Z,27.00
2019-04-25T13:58:24.570Z,28.00
2019-04-25T14:00:57.151Z,26.80
2019-04-25T14:03:29.384Z,27.80
2019-04-25T14:06:00.922Z,29.00
2019-04-25T14:08:33.544Z,24.60
2019-04-25T14:11:05.342Z,26.60
2019-04-25T14:13:38.232Z,25.60
2019-04-25T14:16:28.128Z,26.40
2019-04-25T14:19:17.273Z,22.80
2019-04-25T14:21:49.461Z,23.60
2019-04-25T14:24:22.912Z,24.20
2019-04-25T14:26:55.407Z,24.20
2019-04-25T14:29:28.230Z,23.20
2019-04-25T14:32:00.424Z,24.20
2019-04-25T14:34:33.790Z,26.00
2019-04-25T14:37:06.170Z,23.80
2019-04-25T14:39:38.169Z,24.00
2019-04-25T14:42:10.354Z,23.80
2019-04-25T14:44:42.722Z,23.20
2019-04-25T14:47:15.146Z,24.00
2019-04-25T14:49:47.968Z,26.00
2019-04-25T14:52:20.150Z,25.20
2019-04-25T14:55:16.696Z,23.60
2019-04-25T14:57:48.632Z,24.60
2019-04-25T15:00:28.244Z,23.00
2019-04-25T15:03:00.255Z,24.60
2019-04-25T15:05:31.752Z,23.20
2019-04-25T15:08:16.553Z,25.00
2019-04-25T15:10:48.497Z,25.80
2019-04-25T15:13:20.624Z,27.00
2019-04-25T15:15:52.142Z,26.00
2019-04-25T15:18:24.690Z,25.80
2019-04-25T15:20:56.506Z,26.00
2019-04-25T15:23:28.398Z,24.80
2019-04-25T15:26:00.042Z,25.80
2019-04-25T15:28:32.156Z,25.00
2019-04-25T15:31:04.294Z,26.00
2019-04-25T15:33:36.072Z,26.20
2019-04-25T15:36:14.009Z,25.20
2019-04-25T15:39:01.464Z,26.40
2019-04-25T15:41:48.413Z,26.80
2019-04-25T15:44:43.466Z,26.00
2019-04-25T15:47:18.231Z,20.80
2019-04-25T15:49:50.035Z,24.00
2019-04-25T15:52:21.602Z,23.40
2019-04-25T15:54:53.373Z,23.40
2019-04-25T15:57:25.075Z,25.60
2019-04-25T15:59:56.733Z,25.20
2019-04-25T16:02:28.826Z,22.20
2019-04-25T16:05:00.345Z,25.20
2019-04-25T16:07:31.759Z,24.60
2019-04-25T16:10:03.375Z,23.40
2019-04-25T16:12:37.382Z,25.00
2019-04-25T16:15:09.214Z,24.80
2019-04-25T16:17:40.941Z,27.80
2019-04-25T16:20:12.502Z,24.00
2019-04-25T16:22:45.097Z,25.00
2019-04-25T16:25:16.796Z,26.60
2019-04-25T16:27:49.531Z,26.80
2019-04-25T16:30:23.793Z,23.20
2019-04-25T16:32:55.206Z,23.40
2019-04-25T16:35:26.616Z,25.40
2019-04-25T16:37:58.010Z,26.00
2019-04-25T16:40:29.912Z,26.00
2019-04-25T16:43:03.763Z,26.20
2019-04-25T16:45:37.729Z,23.80
2019-04-25T16:48:10.523Z,25.80
2019-04-25T16:50:42.568Z,25.20
2019-04-25T16:53:14.258Z,26.20
2019-04-25T16:55:47.437Z,25.20
2019-04-25T16:58:19.334Z,26.80
2019-04-25T17:01:07.123Z,27.00
2019-04-25T17:03:39.890Z,28.80
2019-04-25T17:06:11.712Z,30.40
2019-04-25T17:08:43.930Z,28.40
2019-04-25T17:11:15.650Z,29.40
2019-04-25T17:13:54.874Z,31.80
2019-04-25T17:16:47.764Z,33.00
2019-04-25T17:19:26.843Z,33.00
2019-04-25T17:22:00.606Z,33.00
2019-04-25T17:24:32.800Z,32.40
2019-04-25T17:27:05.991Z,33.80
2019-04-25T17:29:37.910Z,33.40
2019-04-25T17:32:53.531Z,33.00
2019-04-25T17:35:39.736Z,35.20
2019-04-25T17:38:33.718Z,33.40
2019-04-25T17:41:05.900Z,33.00
2019-04-25T17:43:38.458Z,34.40
2019-04-25T17:46:11.949Z,31.40
2019-04-25T17:48:43.754Z,34.60
2019-04-25T17:51:15.569Z,34.00
2019-04-25T17:53:47.471Z,33.80
2019-04-25T17:56:19.522Z,34.00
2019-04-25T17:58:51.423Z,33.00
2019-04-25T18:01:25.144Z,31.20
2019-04-25T18:03:58.077Z,32.60
2019-04-25T18:06:29.780Z,33.60
2019-04-25T18:09:05.201Z,32.00
2019-04-25T18:11:38.082Z,33.00
2019-04-25T18:14:10.166Z,29.40
2019-04-25T18:16:45.002Z,33.00
2019-04-25T18:19:27.942Z,33.20
2019-04-25T18:22:05.433Z,30.20
2019-04-25T18:24:57.454Z,32.00
2019-04-25T18:27:33.095Z,31.00
2019-04-25T18:30:06.205Z,32.80
2019-04-25T18:32:39.964Z,32.20
2019-04-25T18:35:23.320Z,32.60
2019-04-25T18:38:02.672Z,31.80
2019-04-25T18:40:44.057Z,31.00
2019-04-25T18:43:28.364Z,31.00
2019-04-25T18:46:06.224Z,33.00
2019-04-25T18:48:38.653Z,31.00
2019-04-25T18:51:11.451Z,31.00
2019-04-25T18:54:05.354Z,31.00
2019-04-25T18:56:50.249Z,30.80
2019-04-25T18:59:36.004Z,29.60
2019-04-25T19:02:41.935Z,31.60
2019-04-25T19:05:29.239Z,31.00
2019-04-25T19:08:01.069Z,31.00
2019-04-25T19:10:32.695Z,32.40
2019-04-25T19:13:12.431Z,31.80
2019-04-25T19:15:38.825Z,30.80
2019-04-25T19:18:11.767Z,29.20
2019-04-25T19:20:43.946Z,29.40
2019-04-25T19:23:15.748Z,29.60
2019-04-25T19:25:47.854Z,31.00
2019-04-25T19:28:20.021Z,30.00
2019-04-25T19:30:52.882Z,28.40
2019-04-25T19:33:35.077Z,29.20
2019-04-25T19:35:58.749Z,28.20
2019-04-25T19:38:31.055Z,28.80
2019-04-25T19:41:21.824Z,28.40
2019-04-25T19:44:03.129Z,29.20
2019-04-25T19:46:42.883Z,29.00
2019-04-25T19:49:14.835Z,28.00
2019-04-25T19:51:47.214Z,27.40
2019-04-25T19:54:20.462Z,29.60
2019-04-25T19:56:53.187Z,28.80
2019-04-25T19:59:24.793Z,32.80
2019-04-25T20:01:58.348Z,29.60
2019-04-25T20:04:53.398Z,30.20
2019-04-25T20:07:35.458Z,29.40
2019-04-25T20:10:24.906Z,30.40
2019-04-25T20:12:57.651Z,32.60
2019-04-25T20:15:29.281Z,30.20
2019-04-25T20:18:03.166Z,29.20
2019-04-25T20:20:35.351Z,31.20
2019-04-25T20:23:07.375Z,28.00
2019-04-25T20:25:39.280Z,30.40
2019-04-25T20:28:11.892Z,29.40
2019-04-25T20:30:45.716Z,30.60
2019-04-25T20:33:18.114Z,31.20
2019-04-25T20:35:51.057Z,28.00
2019-04-25T20:38:22.902Z,30.00
2019-04-25T20:40:56.025Z,29.20
2019-04-25T20:43:27.776Z,30.80
2019-04-25T20:46:00.145Z,29.80
2019-04-25T20:48:31.950Z,30.00
2019-04-25T20:51:04.217Z,30.00
2019-04-25T20:53:36.158Z,26.80
2019-04-25T20:56:07.938Z,32.20
2019-04-25T20:58:40.600Z,31.20
2019-04-25T21:01:14.335Z,30.80
2019-04-25T21:03:45.634Z,30.20
2019-04-25T21:06:23.536Z,31.20
2019-04-25T21:08:55.789Z,30.80
2019-04-25T21:11:27.634Z,29.20
2019-04-25T21:14:35.111Z,30.40
2019-04-25T21:17:10.259Z,31.20
2019-04-25T21:19:44.595Z,34.00
2019-04-25T21:22:19.226Z,35.20
2019-04-25T21:24:51.844Z,36.60
2019-04-25T21:27:23.561Z,34.40
2019-04-25T21:29:55.606Z,34.40
2019-04-25T21:32:27.477Z,37.60
2019-04-25T21:34:59.563Z,37.40
2019-04-25T21:37:31.595Z,35.60
2019-04-25T21:40:14.455Z,35.80
2019-04-25T21:42:53.091Z,35.20
2019-04-25T21:45:25.173Z,37.20
2019-04-25T21:47:57.340Z,41.80
2019-04-25T21:50:29.605Z,44.60
2019-04-25T21:53:01.670Z,37.60
2019-04-25T21:55:35.254Z,33.60
2019-04-25T21:58:07.650Z,31.20
2019-04-25T22:01:02.287Z,32.80
2019-04-25T22:03:36.734Z,29.20
2019-04-25T22:06:09.068Z,30.60
2019-04-25T22:08:44.112Z,31.00
2019-04-25T22:11:16.055Z,31.80
2019-04-25T22:13:49.956Z,28.40
2019-04-25T22:16:23.306Z,31.20
2019-04-25T22:18:55.519Z,30.20
2019-04-25T22:21:37.480Z,31.00
2019-04-25T22:24:08.849Z,29.60
2019-04-25T22:26:35.149Z,31.20
2019-04-25T22:29:07.555Z,30.20
2019-04-25T22:31:53.081Z,29.60
2019-04-25T22:34:31.405Z,29.40
2019-04-25T22:37:04.103Z,31.00
2019-04-25T22:39:35.944Z,29.60
2019-04-25T22:42:07.997Z,29.80
2019-04-25T22:44:40.721Z,30.40
2019-04-25T22:47:14.026Z,31.20
2019-04-25T22:49:46.276Z,31.60
2019-04-25T22:52:18.525Z,28.20
2019-04-25T22:54:50.444Z,29.20
2019-04-25T22:57:25.490Z,29.40
2019-04-25T22:59:57.020Z,30.40
2019-04-25T23:02:35.010Z,31.40
2019-04-25T23:05:18.399Z,29.20
2019-04-25T23:07:50.300Z,31.20
2019-04-25T23:10:22.210Z,31.00
2019-04-25T23:12:55.692Z,30.60
2019-04-25T23:15:27.612Z,31.40
2019-04-25T23:17:59.759Z,31.20
2019-04-25T23:20:31.577Z,32.60
2019-04-25T23:23:04.800Z,29.40
2019-04-25T23:25:56.246Z,30.80
2019-04-25T23:28:32.735Z,31.60
2019-04-25T23:31:17.314Z,32.80
2019-04-25T23:33:49.225Z,31.20
2019-04-25T23:36:21.708Z,32.20
2019-04-25T23:38:53.415Z,31.20
2019-04-25T23:41:28.652Z,29.60
2019-04-25T23:44:00.512Z,29.60
2019-04-25T23:46:32.752Z,30.40
2019-04-25T23:49:04.934Z,30.00
2019-04-25T23:51:36.917Z,30.00
2019-04-25T23:54:08.929Z,32.00
2019-04-25T23:56:40.980Z,32.40
2019-04-25T23:59:13.559Z,33.20
